createdAt,value
2022-12-17T00:00:42.342Z,29.80
2022-12-17T00:03:29.869Z,25.40
2022-12-17T00:06:15.937Z,20.47
2022-12-17T00:09:01.867Z,23.70
2022-12-17T00:11:47.256Z,25.50
2022-12-17T00:14:33.084Z,27.57
2022-12-17T00:17:18.918Z,20.13
2022-12-17T00:20:04.785Z,19.87
2022-12-17T00:22:51.068Z,23.83
2022-12-17T00:25:36.727Z,19.07
2022-12-17T00:28:22.207Z,20.03
2022-12-17T00:31:11.626Z,25.97
2022-12-17T00:33:57.391Z,21.90
2022-12-17T00:36:45.008Z,22.37
2022-12-17T00:39:31.167Z,20.37
2022-12-17T00:42:16.828Z,27.27
2022-12-17T00:45:02.875Z,21.70
2022-12-17T00:47:48.836Z,24.10
2022-12-17T00:50:36.032Z,36.37
2022-12-17T00:53:22.264Z,25.27
2022-12-17T00:56:08.195Z,22.20
2022-12-17T00:58:55.009Z,18.10
2022-12-17T01:01:41.202Z,23.10
2022-12-17T01:04:26.894Z,21.03
2022-12-17T01:07:12.734Z,24.90
2022-12-17T01:09:58.304Z,23.37
2022-12-17T01:12:44.188Z,24.43
2022-12-17T01:15:30.803Z,22.60
2022-12-17T01:18:16.717Z,22.17
2022-12-17T01:21:01.961Z,21.03
2022-12-17T01:23:47.775Z,21.97
2022-12-17T01:26:33.968Z,20.97
2022-12-17T01:29:19.691Z,18.93
2022-12-17T01:32:05.235Z,22.67
2022-12-17T01:34:51.105Z,16.03
2022-12-17T01:37:36.361Z,24.67
2022-12-17T01:40:22.230Z,20.93
2022-12-17T01:43:07.490Z,22.00
2022-12-17T01:46:02.881Z,24.47
2022-12-17T01:48:56.724Z,28.00
2022-12-17T01:51:44.064Z,26.50
2022-12-17T01:54:30.850Z,19.83
2022-12-17T01:57:17.184Z,28.03
2022-12-17T02:00:27.585Z,21.93
2022-12-17T02:03:15.683Z,18.50
2022-12-17T02:06:30.839Z,23.13
2022-12-17T02:09:52.895Z,24.30
2022-12-17T02:13:10.002Z,21.33
2022-12-17T02:16:09.339Z,23.43
2022-12-17T02:19:13.994Z,20.70
2022-12-17T02:22:01.884Z,26.87
2022-12-17T02:25:11.829Z,18.13
2022-12-17T02:27:57.700Z,22.67
2022-12-17T02:30:43.797Z,21.17
2022-12-17T02:33:31.860Z,19.27
2022-12-17T02:36:25.041Z,21.77
2022-12-17T02:39:11.459Z,26.50
2022-12-17T02:42:10.336Z,24.87
2022-12-17T02:44:58.022Z,24.87
2022-12-17T02:47:44.498Z,21.90
2022-12-17T02:50:30.854Z,21.00
2022-12-17T02:53:19.996Z,23.90
2022-12-17T02:56:05.980Z,21.03
2022-12-17T02:58:54.034Z,18.80
2022-12-17T03:01:40.075Z,23.47
2022-12-17T03:04:25.487Z,26.60
2022-12-17T03:07:11.348Z,22.53
2022-12-17T03:09:56.881Z,19.53
2022-12-17T03:12:43.697Z,19.93
2022-12-17T03:15:29.012Z,26.93
2022-12-17T03:18:14.656Z,27.33
2022-12-17T03:20:59.849Z,22.40
2022-12-17T03:23:45.321Z,28.33
2022-12-17T03:26:30.690Z,33.53
2022-12-17T03:29:16.543Z,26.33
2022-12-17T03:32:02.427Z,28.73
2022-12-17T03:34:48.383Z,29.53
2022-12-17T03:37:33.480Z,24.00
2022-12-17T03:40:19.326Z,32.60
2022-12-17T03:43:05.326Z,40.93
2022-12-17T03:45:50.752Z,49.40
2022-12-17T03:48:36.724Z,36.50
2022-12-17T03:51:22.744Z,35.83
2022-12-17T03:54:08.610Z,32.63
2022-12-17T03:56:53.949Z,48.17
2022-12-17T03:59:39.762Z,48.50
2022-12-17T04:02:25.646Z,44.10
2022-12-17T04:05:16.555Z,37.17
2022-12-17T04:08:05.248Z,34.90
2022-12-17T04:10:50.916Z,34.27
2022-12-17T04:13:40.779Z,43.60
2022-12-17T04:16:28.050Z,39.00
2022-12-17T04:19:14.027Z,32.80
2022-12-17T04:21:59.906Z,28.33
2022-12-17T04:24:45.412Z,29.40
2022-12-17T04:27:30.972Z,27.30
2022-12-17T04:30:16.303Z,26.77
2022-12-17T04:33:02.145Z,30.20
2022-12-17T04:35:47.474Z,27.23
2022-12-17T04:38:33.367Z,23.83
2022-12-17T04:41:18.746Z,19.10
2022-12-17T04:44:04.532Z,29.70
2022-12-17T04:46:50.637Z,30.00
2022-12-17T04:49:36.327Z,29.60
2022-12-17T04:52:22.437Z,22.23
2022-12-17T04:55:07.927Z,28.17
2022-12-17T04:57:53.300Z,29.40
2022-12-17T05:00:39.169Z,25.03
2022-12-17T05:03:32.664Z,32.43
2022-12-17T05:06:19.123Z,33.83
2022-12-17T05:09:04.941Z,32.70
2022-12-17T05:11:50.391Z,27.90
2022-12-17T05:14:36.328Z,31.87
2022-12-17T05:17:22.171Z,31.33
2022-12-17T05:20:07.895Z,34.23
2022-12-17T05:22:53.673Z,49.90
2022-12-17T05:25:39.479Z,42.63
2022-12-17T05:28:25.389Z,44.77
2022-12-17T05:31:13.391Z,41.27
2022-12-17T05:33:59.224Z,44.63
2022-12-17T05:36:45.263Z,38.00
2022-12-17T05:39:31.234Z,39.23
2022-12-17T05:42:17.211Z,38.53
2022-12-17T05:45:03.037Z,41.30
2022-12-17T05:47:48.412Z,41.23
2022-12-17T05:50:41.923Z,53.87
2022-12-17T05:53:28.926Z,68.87
2022-12-17T05:56:15.113Z,68.17
2022-12-17T05:59:01.168Z,46.47
2022-12-17T06:01:46.473Z,50.37
2022-12-17T06:04:32.442Z,113.37
2022-12-17T06:07:18.227Z,79.87
2022-12-17T06:10:04.238Z,59.90
2022-12-17T06:12:49.620Z,38.67
2022-12-17T06:15:35.709Z,44.53
2022-12-17T06:18:21.052Z,69.40
2022-12-17T06:21:06.961Z,63.70
2022-12-17T06:23:52.222Z,55.43
2022-12-17T06:26:38.042Z,40.17
2022-12-17T06:29:23.468Z,38.00
2022-12-17T06:32:19.808Z,40.23
2022-12-17T06:35:05.310Z,41.40
2022-12-17T06:37:51.150Z,34.33
2022-12-17T06:40:36.867Z,51.00
2022-12-17T06:43:22.797Z,37.43
2022-12-17T06:46:10.798Z,41.40
2022-12-17T06:48:56.597Z,38.83
2022-12-17T06:51:41.852Z,45.00
2022-12-17T06:54:27.821Z,41.97
2022-12-17T06:57:13.555Z,33.43
2022-12-17T06:59:59.411Z,41.20
2022-12-17T07:02:44.827Z,38.33
2022-12-17T07:05:30.886Z,39.93
2022-12-17T07:08:18.024Z,35.87
2022-12-17T07:11:03.844Z,32.77
2022-12-17T07:13:49.672Z,30.47
2022-12-17T07:16:35.540Z,28.17
2022-12-17T07:19:26.778Z,36.60
2022-12-17T07:22:13.196Z,36.03
2022-12-17T07:24:59.061Z,33.77
2022-12-17T07:27:44.930Z,34.93
2022-12-17T07:30:31.766Z,29.97
2022-12-17T07:33:24.252Z,33.97
2022-12-17T07:36:12.054Z,37.35
2022-12-17T07:38:57.628Z,30.53
2022-12-17T07:41:43.479Z,36.90
2022-12-17T07:44:29.332Z,27.50
2022-12-17T07:47:15.047Z,38.73
2022-12-17T07:50:01.428Z,34.97
2022-12-17T07:52:47.388Z,32.10
2022-12-17T07:55:33.219Z,34.90
2022-12-17T07:58:22.424Z,33.67
2022-12-17T08:01:07.857Z,44.03
2022-12-17T08:03:53.246Z,29.50
2022-12-17T08:06:39.195Z,37.63
2022-12-17T08:09:25.038Z,31.53
2022-12-17T08:12:10.885Z,63.37
2022-12-17T08:14:56.891Z,51.27
2022-12-17T08:17:42.688Z,47.43
2022-12-17T08:20:29.487Z,34.77
2022-12-17T08:23:22.920Z,36.57
2022-12-17T08:26:09.162Z,36.87
2022-12-17T08:28:54.988Z,37.20
2022-12-17T08:31:43.347Z,43.33
2022-12-17T08:34:29.390Z,42.13
2022-12-17T08:37:15.213Z,37.77
2022-12-17T08:40:01.232Z,37.07
2022-12-17T08:42:47.160Z,34.83
2022-12-17T08:45:33.066Z,45.70
2022-12-17T08:48:26.739Z,28.83
2022-12-17T08:51:29.704Z,33.47
2022-12-17T08:57:00.755Z,42.87
2022-12-17T08:59:46.221Z,32.67
2022-12-17T09:02:32.141Z,30.50
2022-12-17T09:05:18.202Z,32.87
2022-12-17T09:08:06.794Z,36.57
2022-12-17T09:10:52.929Z,41.50
2022-12-17T09:13:39.077Z,45.43
2022-12-17T09:16:25.119Z,35.40
2022-12-17T09:19:11.003Z,48.60
2022-12-17T09:21:56.634Z,43.97
2022-12-17T09:24:42.439Z,52.53
2022-12-17T09:27:27.611Z,39.60
2022-12-17T09:30:13.568Z,41.93
2022-12-17T09:32:59.325Z,41.00
2022-12-17T09:35:45.309Z,37.47
2022-12-17T09:38:33.897Z,42.67
2022-12-17T09:41:46.132Z,41.73
2022-12-17T09:44:53.943Z,43.67
2022-12-17T09:48:10.679Z,34.83
2022-12-17T09:50:56.476Z,57.27
2022-12-17T09:53:55.954Z,43.77
2022-12-17T09:56:44.700Z,36.73
2022-12-17T09:59:46.358Z,46.10
2022-12-17T10:02:54.067Z,40.40
2022-12-17T10:05:49.787Z,41.03
2022-12-17T10:08:39.572Z,35.30
2022-12-17T10:11:34.907Z,51.37
2022-12-17T10:14:22.842Z,39.43
2022-12-17T10:17:12.066Z,44.93
2022-12-17T10:20:00.580Z,39.67
2022-12-17T10:22:46.711Z,39.43
2022-12-17T10:25:40.148Z,46.00
2022-12-17T10:28:37.295Z,47.43
2022-12-17T10:31:38.122Z,47.47
2022-12-17T10:34:38.961Z,40.67
2022-12-17T10:37:37.942Z,47.10
2022-12-17T10:40:39.327Z,40.33
2022-12-17T10:43:49.193Z,37.83
2022-12-17T10:46:51.453Z,39.17
2022-12-17T10:49:43.585Z,42.77
2022-12-17T10:52:48.860Z,45.63
2022-12-17T10:55:49.098Z,39.63
2022-12-17T10:58:35.905Z,47.60
2022-12-17T11:01:23.297Z,45.23
2022-12-17T11:04:12.894Z,45.03
2022-12-17T11:07:08.459Z,33.60
2022-12-17T11:10:08.986Z,49.60
2022-12-17T11:13:09.876Z,50.23
2022-12-17T11:16:13.570Z,46.73
2022-12-17T11:19:11.173Z,47.73
2022-12-17T11:22:10.199Z,48.80
2022-12-17T11:25:03.813Z,42.80
2022-12-17T11:28:03.803Z,43.67
2022-12-17T11:30:56.163Z,54.30
2022-12-17T11:34:10.757Z,48.97
2022-12-17T11:37:24.106Z,45.07
2022-12-17T11:40:22.549Z,46.67
2022-12-17T11:43:48.443Z,35.60
2022-12-17T11:46:53.355Z,51.67
2022-12-17T11:50:14.969Z,52.93
2022-12-17T11:53:44.430Z,44.70
2022-12-17T11:56:37.167Z,50.17
2022-12-17T11:59:52.701Z,49.57
2022-12-17T12:03:50.589Z,49.17
2022-12-17T12:07:03.823Z,52.00
2022-12-17T12:13:31.389Z,43.50
2022-12-17T12:16:44.805Z,53.77
2022-12-17T12:20:20.835Z,54.23
2022-12-17T12:23:56.290Z,48.57
2022-12-17T12:27:09.818Z,38.20
2022-12-17T12:30:28.493Z,52.67
2022-12-17T12:33:42.506Z,52.10
2022-12-17T12:36:31.248Z,50.27
2022-12-17T12:39:17.244Z,44.43
2022-12-17T12:42:22.177Z,45.60
2022-12-17T12:45:45.930Z,38.77
2022-12-17T12:49:05.254Z,45.97
2022-12-17T12:51:59.421Z,47.60
2022-12-17T12:55:10.033Z,39.70
2022-12-17T12:58:39.569Z,41.67
2022-12-17T13:01:25.227Z,44.20
2022-12-17T13:04:14.831Z,39.33
2022-12-17T13:06:49.122Z,39.47
2022-12-17T13:09:16.619Z,41.60
2022-12-17T13:11:47.405Z,46.40
2022-12-17T13:14:20.709Z,34.10
2022-12-17T13:16:47.754Z,35.93
2022-12-17T13:19:40.280Z,38.43
2022-12-17T13:22:21.948Z,38.47
2022-12-17T13:25:09.225Z,35.40
2022-12-17T13:27:36.028Z,40.13
2022-12-17T13:30:17.992Z,41.80
2022-12-17T13:33:24.914Z,43.63
2022-12-17T13:36:12.891Z,40.77
2022-12-17T13:39:13.966Z,38.87
2022-12-17T13:41:41.425Z,33.67
2022-12-17T13:44:29.792Z,36.53
2022-12-17T13:46:56.701Z,33.93
2022-12-17T13:49:30.005Z,45.63
2022-12-17T13:52:20.544Z,33.00
2022-12-17T13:54:48.281Z,41.07
2022-12-17T13:57:25.163Z,42.63
2022-12-17T13:59:53.564Z,38.70
2022-12-17T14:02:35.077Z,41.80
2022-12-17T14:05:08.155Z,41.00
2022-12-17T14:07:39.106Z,38.47
2022-12-17T14:10:18.105Z,44.93
2022-12-17T14:12:46.027Z,44.97
2022-12-17T14:15:32.265Z,42.67
2022-12-17T14:17:59.813Z,43.47
2022-12-17T14:20:31.765Z,38.80
2022-12-17T14:23:21.931Z,37.58
2022-12-17T14:25:49.182Z,39.77
2022-12-17T14:28:51.525Z,38.20
2022-12-17T14:31:28.164Z,38.00
2022-12-17T14:34:11.735Z,34.70
2022-12-17T14:36:43.748Z,43.03
2022-12-17T14:39:25.660Z,36.88
2022-12-17T14:42:12.460Z,44.70
2022-12-17T14:44:56.068Z,43.20
2022-12-17T14:47:36.549Z,34.40
2022-12-17T14:50:12.569Z,44.40
2022-12-17T14:52:55.129Z,38.33
2022-12-17T14:55:55.217Z,40.40
2022-12-17T14:58:25.338Z,36.40
2022-12-17T15:01:05.844Z,36.67
2022-12-17T15:03:37.937Z,36.67
2022-12-17T15:06:09.007Z,41.58
2022-12-17T15:08:56.305Z,36.40
2022-12-17T15:11:23.528Z,43.47
2022-12-17T15:13:56.116Z,41.90
2022-12-17T15:16:24.288Z,40.47
2022-12-17T15:18:51.312Z,43.00
2022-12-17T15:21:19.627Z,37.80
2022-12-17T15:23:47.198Z,38.27
2022-12-17T15:26:15.214Z,41.57
2022-12-17T15:28:43.540Z,36.50
2022-12-17T15:31:13.310Z,40.30
2022-12-17T15:33:41.431Z,60.50
2022-12-17T15:36:11.811Z,54.43
2022-12-17T15:38:39.466Z,46.67
2022-12-17T15:41:25.616Z,43.43
2022-12-17T15:43:52.792Z,41.83
2022-12-17T15:46:20.155Z,34.90
2022-12-17T15:48:50.341Z,37.17
2022-12-17T15:51:19.917Z,38.37
2022-12-17T15:53:48.469Z,35.60
2022-12-17T15:56:25.285Z,37.80
2022-12-17T15:58:52.883Z,49.57
2022-12-17T16:01:20.373Z,40.70
2022-12-17T16:03:47.864Z,45.10
2022-12-17T16:06:15.217Z,54.90
2022-12-17T16:08:42.136Z,34.63
2022-12-17T16:11:11.850Z,41.90
2022-12-17T16:13:39.391Z,42.80
2022-12-17T16:16:07.441Z,37.33
2022-12-17T16:18:35.874Z,42.80
2022-12-17T16:21:04.901Z,36.47
2022-12-17T16:23:32.822Z,40.10
2022-12-17T16:26:02.679Z,38.00
2022-12-17T16:28:30.805Z,41.13
2022-12-17T16:31:05.926Z,42.27
2022-12-17T16:33:39.091Z,35.43
2022-12-17T16:36:08.380Z,46.53
2022-12-17T16:38:36.139Z,33.33
2022-12-17T16:41:04.076Z,38.83
2022-12-17T16:43:34.710Z,44.47
2022-12-17T16:46:03.145Z,41.37
2022-12-17T16:48:39.785Z,46.60
2022-12-17T16:51:20.108Z,40.50
2022-12-17T16:53:53.294Z,39.27
2022-12-17T16:56:24.688Z,35.90
2022-12-17T16:58:52.680Z,42.13
2022-12-17T17:01:26.434Z,36.83
2022-12-17T17:03:57.804Z,39.20
2022-12-17T17:06:33.750Z,27.20
2022-12-17T17:09:04.574Z,32.10
2022-12-17T17:11:32.177Z,31.50
2022-12-17T17:13:59.109Z,36.17
2022-12-17T17:16:26.650Z,34.07
2022-12-17T17:18:54.293Z,35.67
2022-12-17T17:21:24.340Z,36.87
2022-12-17T17:23:57.252Z,36.67
2022-12-17T17:26:24.849Z,43.87
2022-12-17T17:28:52.118Z,32.63
2022-12-17T17:31:19.316Z,39.20
2022-12-17T17:33:49.714Z,33.10
2022-12-17T17:36:24.132Z,31.03
2022-12-17T17:38:57.191Z,40.60
2022-12-17T17:41:27.497Z,34.33
2022-12-17T17:44:00.787Z,37.27
2022-12-17T17:46:30.420Z,36.13
2022-12-17T17:48:59.510Z,39.23
2022-12-17T17:52:07.127Z,42.07
2022-12-17T17:54:19.454Z,50.73
2022-12-17T17:56:46.369Z,42.07
2022-12-17T17:59:19.212Z,45.87
2022-12-17T18:01:51.765Z,43.90
2022-12-17T18:04:21.650Z,42.63
2022-12-17T18:07:23.121Z,40.13
2022-12-17T18:09:36.288Z,46.40
2022-12-17T18:12:23.949Z,53.43
2022-12-17T18:15:13.855Z,60.27
2022-12-17T18:17:37.698Z,54.17
2022-12-17T18:20:05.365Z,51.67
2022-12-17T18:22:32.274Z,45.73
2022-12-17T18:24:59.226Z,44.37
2022-12-17T18:27:26.127Z,46.67
2022-12-17T18:29:53.142Z,44.27
2022-12-17T18:32:20.060Z,59.87
2022-12-17T18:34:47.545Z,37.70
2022-12-17T18:37:14.949Z,43.60
2022-12-17T18:39:42.144Z,47.40
2022-12-17T18:42:27.918Z,44.87
2022-12-17T18:44:55.271Z,52.17
2022-12-17T18:47:22.226Z,62.60
2022-12-17T18:49:49.547Z,74.47
2022-12-17T18:52:17.587Z,75.27
2022-12-17T18:54:45.427Z,90.93
2022-12-17T18:57:13.223Z,84.13
2022-12-17T18:59:41.284Z,67.17
2022-12-17T19:02:13.373Z,59.27
2022-12-17T19:04:41.038Z,73.75
2022-12-17T19:07:08.519Z,63.50
2022-12-17T19:09:36.200Z,73.37
2022-12-17T19:12:06.126Z,63.93
2022-12-17T19:14:34.039Z,52.97
2022-12-17T19:17:01.879Z,56.43
2022-12-17T19:19:29.200Z,54.77
2022-12-17T19:21:58.614Z,53.20
2022-12-17T19:24:28.194Z,54.03
2022-12-17T19:26:55.596Z,56.23
2022-12-17T19:29:22.871Z,56.30
2022-12-17T19:31:50.558Z,61.73
2022-12-17T19:34:22.193Z,49.77
2022-12-17T19:36:49.311Z,45.28
2022-12-17T19:39:19.108Z,58.30
2022-12-17T19:41:46.552Z,42.03
2022-12-17T19:44:15.923Z,57.87
2022-12-17T19:46:45.997Z,45.13
2022-12-17T19:49:15.428Z,50.30
2022-12-17T19:51:44.168Z,49.70
2022-12-17T19:54:14.688Z,44.87
2022-12-17T19:56:43.622Z,42.43
2022-12-17T19:59:11.248Z,47.90
2022-12-17T20:01:44.309Z,59.27
2022-12-17T20:04:13.956Z,53.20
2022-12-17T20:06:42.059Z,58.73
2022-12-17T20:09:09.370Z,52.07
2022-12-17T20:11:36.739Z,51.40
2022-12-17T20:14:22.022Z,57.70
2022-12-17T20:16:56.102Z,58.03
2022-12-17T20:19:32.448Z,74.83
2022-12-17T20:22:04.305Z,68.50
2022-12-17T20:24:32.345Z,73.18
2022-12-17T20:27:00.595Z,66.50
2022-12-17T20:29:27.672Z,47.70
2022-12-17T20:31:55.930Z,59.60
2022-12-17T20:34:24.363Z,67.60
2022-12-17T20:36:53.034Z,64.57
2022-12-17T20:39:26.185Z,63.63
2022-12-17T20:41:53.875Z,67.93
2022-12-17T20:44:21.168Z,63.23
2022-12-17T20:46:48.700Z,54.23
2022-12-17T20:49:16.141Z,61.10
2022-12-17T20:51:43.769Z,58.30
2022-12-17T20:54:11.391Z,68.73
2022-12-17T20:56:39.984Z,57.03
2022-12-17T20:59:11.584Z,67.07
2022-12-17T21:01:38.534Z,69.40
2022-12-17T21:04:09.225Z,67.83
2022-12-17T21:06:42.063Z,70.67
2022-12-17T21:09:09.963Z,75.97
2022-12-17T21:11:38.569Z,59.03
2022-12-17T21:14:12.942Z,72.53
2022-12-17T21:16:40.418Z,77.27
2022-12-17T21:19:09.194Z,66.70
2022-12-17T21:21:37.893Z,63.07
2022-12-17T21:24:08.827Z,54.37
2022-12-17T21:26:40.001Z,59.27
2022-12-17T21:29:08.952Z,64.70
2022-12-17T21:31:49.457Z,61.10
2022-12-17T21:34:25.341Z,77.57
2022-12-17T21:36:52.768Z,76.80
2022-12-17T21:39:21.041Z,82.93
2022-12-17T21:42:08.630Z,59.73
2022-12-17T21:44:36.472Z,73.97
2022-12-17T21:47:03.867Z,58.87
2022-12-17T21:49:31.837Z,70.03
2022-12-17T21:52:03.507Z,70.43
2022-12-17T21:54:30.632Z,70.83
2022-12-17T21:57:00.829Z,78.07
2022-12-17T21:59:28.202Z,78.13
2022-12-17T22:01:57.498Z,74.00
2022-12-17T22:04:25.376Z,59.27
2022-12-17T22:06:56.686Z,68.40
2022-12-17T22:09:32.700Z,69.00
2022-12-17T22:12:35.525Z,65.00
2022-12-17T22:15:06.247Z,57.83
2022-12-17T22:17:33.559Z,76.67
2022-12-17T22:20:00.459Z,81.57
2022-12-17T22:22:27.749Z,67.70
2022-12-17T22:24:56.472Z,63.17
2022-12-17T22:27:24.061Z,68.07
2022-12-17T22:30:09.939Z,69.80
2022-12-17T22:32:56.199Z,89.43
2022-12-17T22:37:22.314Z,70.80
2022-12-17T22:41:07.755Z,61.27
2022-12-17T22:44:35.118Z,69.17
2022-12-17T22:44:43.212Z,78.63
2022-12-17T22:46:40.093Z,69.17
2022-12-17T22:49:07.693Z,69.83
2022-12-17T22:51:41.604Z,79.70
2022-12-17T22:54:10.367Z,50.90
2022-12-17T22:56:52.421Z,47.67
2022-12-17T22:59:27.483Z,68.10
2022-12-17T23:01:54.498Z,64.53
2022-12-17T23:04:22.043Z,74.07
2022-12-17T23:06:49.069Z,68.93
2022-12-17T23:09:20.778Z,97.87
2022-12-17T23:11:49.063Z,77.28
2022-12-17T23:14:17.024Z,94.93
2022-12-17T23:16:44.538Z,118.33
2022-12-17T23:19:12.566Z,68.13
2022-12-17T23:21:39.876Z,87.90
2022-12-17T23:24:07.495Z,91.13
2022-12-17T23:26:36.819Z,90.43
2022-12-17T23:29:08.821Z,97.40
2022-12-17T23:31:40.092Z,100.53
2022-12-17T23:34:08.167Z,96.00
2022-12-17T23:36:36.491Z,74.17
2022-12-17T23:39:04.309Z,75.17
2022-12-17T23:41:31.912Z,94.70
2022-12-17T23:43:59.787Z,78.73
2022-12-17T23:46:29.404Z,83.30
2022-12-17T23:48:56.351Z,82.20
2022-12-17T23:51:24.500Z,90.67
2022-12-17T23:53:51.731Z,64.47
2022-12-17T23:56:26.177Z,66.73
2022-12-17T23:58:58.889Z,76.60
